Weather at Koksijde Air Base

Public forecast

Using degrees Celsius for public forecast. Weather courtesy of forecast.io.

Current aviation weather report (METAR) for Koksijde Air Base

2024/05/25 16:25 (retrieved 44 minutes ago)

EBFN 251625Z AUTO 32005KT 9999 NCD 17/08 Q1016 BLU

Aviation forecast (TAF) for Koksijde Air Base

Forecast is more than 12 hours old.

2024/05/23 19:12 (retrieved 2 days ago)

TAF EBFN 231541Z 2319/2407 22007KT 9999 FEW030 TEMPO 2319/2322 4000 SHRA SCT015TCU PROB30 TEMPO 2319/2322 2000 TSRA BKN010CB TEMPO 2402/2407 VRB03KT 4000 BR